sensor_id;sensor_type;location;lat;lon;timestamp;P1;durP1;ratioP1;P2;durP2;ratioP2
12112;SDS011;6120;52.250;8.478;2023-05-16T00:01:56;13.27;;;6.88;;
12112;SDS011;6120;52.250;8.478;2023-05-16T00:04:23;13.05;;;6.40;;
12112;SDS011;6120;52.250;8.478;2023-05-16T00:09:18;9.68;;;6.13;;
12112;SDS011;6120;52.250;8.478;2023-05-16T00:11:44;7.95;;;4.63;;
12112;SDS011;6120;52.250;8.478;2023-05-16T00:14:13;10.48;;;5.40;;
12112;SDS011;6120;52.250;8.478;2023-05-16T00:16:40;10.00;;;4.95;;
12112;SDS011;6120;52.250;8.478;2023-05-16T00:19:07;6.75;;;4.30;;
12112;SDS011;6120;52.250;8.478;2023-05-16T00:21:35;10.43;;;4.22;;
12112;SDS011;6120;52.250;8.478;2023-05-16T00:24:02;6.18;;;3.80;;
12112;SDS011;6120;52.250;8.478;2023-05-16T00:26:30;6.53;;;3.50;;
12112;SDS011;6120;52.250;8.478;2023-05-16T00:28:56;5.47;;;3.35;;
12112;SDS011;6120;52.250;8.478;2023-05-16T00:31:23;8.50;;;4.13;;
12112;SDS011;6120;52.250;8.478;2023-05-16T00:33:50;8.98;;;3.67;;
12112;SDS011;6120;52.250;8.478;2023-05-16T00:36:16;7.30;;;3.90;;
12112;SDS011;6120;52.250;8.478;2023-05-16T00:38:43;7.10;;;3.85;;
12112;SDS011;6120;52.250;8.478;2023-05-16T00:41:09;7.03;;;3.97;;
12112;SDS011;6120;52.250;8.478;2023-05-16T00:43:36;8.10;;;4.10;;
12112;SDS011;6120;52.250;8.478;2023-05-16T00:46:04;7.80;;;4.13;;
12112;SDS011;6120;52.250;8.478;2023-05-16T00:48:31;5.85;;;3.72;;
12112;SDS011;6120;52.250;8.478;2023-05-16T00:50:59;7.35;;;4.03;;
12112;SDS011;6120;52.250;8.478;2023-05-16T00:53:26;6.77;;;3.90;;
12112;SDS011;6120;52.250;8.478;2023-05-16T00:55:53;6.63;;;3.90;;
12112;SDS011;6120;52.250;8.478;2023-05-16T00:58:21;7.15;;;3.85;;
12112;SDS011;6120;52.250;8.478;2023-05-16T01:00:48;5.93;;;3.70;;
12112;SDS011;6120;52.250;8.478;2023-05-16T01:03:15;6.68;;;3.75;;
12112;SDS011;6120;52.250;8.478;2023-05-16T01:05:42;8.30;;;3.88;;
12112;SDS011;6120;52.250;8.478;2023-05-16T01:08:09;8.15;;;3.80;;
12112;SDS011;6120;52.250;8.478;2023-05-16T01:10:38;5.45;;;3.70;;
12112;SDS011;6120;52.250;8.478;2023-05-16T01:13:30;4.00;;;2.40;;
12112;SDS011;6120;52.250;8.478;2023-05-16T01:16:15;7.00;;;2.95;;
12112;SDS011;6120;52.250;8.478;2023-05-16T01:24:17;6.78;;;3.13;;
12112;SDS011;6120;52.250;8.478;2023-05-16T01:26:55;5.15;;;2.90;;
12112;SDS011;6120;52.250;8.478;2023-05-16T01:29:24;7.25;;;2.88;;
12112;SDS011;6120;52.250;8.478;2023-05-16T01:31:51;6.70;;;3.42;;
12112;SDS011;6120;52.250;8.478;2023-05-16T01:34:18;6.85;;;3.20;;
12112;SDS011;6120;52.250;8.478;2023-05-16T01:39:36;8.05;;;2.70;;
12112;SDS011;6120;52.250;8.478;2023-05-16T01:42:08;10.13;;;3.08;;
12112;SDS011;6120;52.250;8.478;2023-05-16T01:44:58;7.85;;;3.10;;
12112;SDS011;6120;52.250;8.478;2023-05-16T01:47:27;10.02;;;3.15;;
12112;SDS011;6120;52.250;8.478;2023-05-16T01:55:41;9.00;;;3.05;;
12112;SDS011;6120;52.250;8.478;2023-05-16T01:58:16;8.45;;;2.70;;
12112;SDS011;6120;52.250;8.478;2023-05-16T02:00:45;18.70;;;3.40;;
12112;SDS011;6120;52.250;8.478;2023-05-16T02:03:11;8.65;;;2.60;;
12112;SDS011;6120;52.250;8.478;2023-05-16T02:05:38;7.20;;;2.40;;
12112;SDS011;6120;52.250;8.478;2023-05-16T02:08:05;8.98;;;2.72;;
12112;SDS011;6120;52.250;8.478;2023-05-16T02:10:31;6.40;;;2.60;;
12112;SDS011;6120;52.250;8.478;2023-05-16T02:12:58;9.32;;;2.88;;
12112;SDS011;6120;52.250;8.478;2023-05-16T02:15:25;7.63;;;2.85;;
12112;SDS011;6120;52.250;8.478;2023-05-16T02:17:52;7.45;;;2.47;;
12112;SDS011;6120;52.250;8.478;2023-05-16T02:20:18;10.10;;;2.85;;
12112;SDS011;6120;52.250;8.478;2023-05-16T02:22:45;8.30;;;2.33;;
12112;SDS011;6120;52.250;8.478;2023-05-16T02:25:13;14.75;;;2.53;;
12112;SDS011;6120;52.250;8.478;2023-05-16T02:27:41;10.52;;;2.40;;
12112;SDS011;6120;52.250;8.478;2023-05-16T02:30:11;12.43;;;2.60;;
12112;SDS011;6120;52.250;8.478;2023-05-16T02:32:38;9.15;;;2.50;;
12112;SDS011;6120;52.250;8.478;2023-05-16T02:35:05;8.45;;;2.53;;
12112;SDS011;6120;52.250;8.478;2023-05-16T02:37:33;7.93;;;2.35;;
12112;SDS011;6120;52.250;8.478;2023-05-16T02:39:59;15.85;;;2.15;;
12112;SDS011;6120;52.250;8.478;2023-05-16T02:42:26;5.88;;;1.95;;
12112;SDS011;6120;52.250;8.478;2023-05-16T02:44:53;7.35;;;2.30;;
12112;SDS011;6120;52.250;8.478;2023-05-16T02:47:19;15.65;;;2.47;;
12112;SDS011;6120;52.250;8.478;2023-05-16T02:49:46;13.20;;;2.45;;
12112;SDS011;6120;52.250;8.478;2023-05-16T02:52:13;13.43;;;2.97;;
12112;SDS011;6120;52.250;8.478;2023-05-16T02:54:39;11.13;;;2.15;;
12112;SDS011;6120;52.250;8.478;2023-05-16T02:57:06;9.70;;;2.22;;
12112;SDS011;6120;52.250;8.478;2023-05-16T02:59:33;11.52;;;2.28;;
12112;SDS011;6120;52.250;8.478;2023-05-16T03:01:59;11.88;;;2.15;;
12112;SDS011;6120;52.250;8.478;2023-05-16T03:04:26;13.88;;;3.10;;
12112;SDS011;6120;52.250;8.478;2023-05-16T03:06:53;9.57;;;2.42;;
12112;SDS011;6120;52.250;8.478;2023-05-16T03:09:19;8.05;;;2.00;;
12112;SDS011;6120;52.250;8.478;2023-05-16T03:11:47;5.38;;;1.92;;
12112;SDS011;6120;52.250;8.478;2023-05-16T03:14:13;7.13;;;1.80;;
12112;SDS011;6120;52.250;8.478;2023-05-16T03:16:40;10.40;;;2.10;;
12112;SDS011;6120;52.250;8.478;2023-05-16T03:19:09;12.90;;;2.42;;
12112;SDS011;6120;52.250;8.478;2023-05-16T03:21:36;11.18;;;2.10;;
12112;SDS011;6120;52.250;8.478;2023-05-16T03:24:02;9.23;;;2.22;;
12112;SDS011;6120;52.250;8.478;2023-05-16T03:26:29;6.88;;;2.08;;
12112;SDS011;6120;52.250;8.478;2023-05-16T03:28:56;12.32;;;2.42;;
12112;SDS011;6120;52.250;8.478;2023-05-16T03:31:23;12.52;;;2.22;;
12112;SDS011;6120;52.250;8.478;2023-05-16T03:33:50;11.57;;;2.70;;
12112;SDS011;6120;52.250;8.478;2023-05-16T03:36:17;15.25;;;2.78;;
12112;SDS011;6120;52.250;8.478;2023-05-16T03:38:43;11.30;;;2.95;;
12112;SDS011;6120;52.250;8.478;2023-05-16T03:41:10;11.07;;;3.00;;
12112;SDS011;6120;52.250;8.478;2023-05-16T03:43:37;8.02;;;2.45;;
12112;SDS011;6120;52.250;8.478;2023-05-16T03:46:03;8.07;;;2.17;;
12112;SDS011;6120;52.250;8.478;2023-05-16T03:48:30;11.63;;;2.85;;
12112;SDS011;6120;52.250;8.478;2023-05-16T03:50:56;8.48;;;2.28;;
12112;SDS011;6120;52.250;8.478;2023-05-16T03:53:23;11.32;;;2.35;;
12112;SDS011;6120;52.250;8.478;2023-05-16T03:55:50;11.55;;;2.40;;
12112;SDS011;6120;52.250;8.478;2023-05-16T03:58:16;8.73;;;1.83;;
12112;SDS011;6120;52.250;8.478;2023-05-16T04:00:43;10.73;;;2.67;;
12112;SDS011;6120;52.250;8.478;2023-05-16T04:03:11;11.35;;;1.90;;
12112;SDS011;6120;52.250;8.478;2023-05-16T04:05:38;10.07;;;2.25;;
12112;SDS011;6120;52.250;8.478;2023-05-16T04:08:05;17.95;;;2.78;;
12112;SDS011;6120;52.250;8.478;2023-05-16T04:10:31;8.45;;;1.92;;
12112;SDS011;6120;52.250;8.478;2023-05-16T04:12:58;11.70;;;2.67;;
12112;SDS011;6120;52.250;8.478;2023-05-16T04:15:25;18.63;;;2.58;;
12112;SDS011;6120;52.250;8.478;2023-05-16T04:17:51;13.25;;;2.20;;
12112;SDS011;6120;52.250;8.478;2023-05-16T04:20:18;15.45;;;2.45;;
12112;SDS011;6120;52.250;8.478;2023-05-16T04:22:45;15.07;;;2.38;;
12112;SDS011;6120;52.250;8.478;2023-05-16T04:25:12;11.82;;;2.17;;
12112;SDS011;6120;52.250;8.478;2023-05-16T04:27:39;17.20;;;2.10;;
12112;SDS011;6120;52.250;8.478;2023-05-16T04:30:06;13.27;;;2.10;;
12112;SDS011;6120;52.250;8.478;2023-05-16T04:32:33;12.93;;;2.47;;
12112;SDS011;6120;52.250;8.478;2023-05-16T04:35:02;13.57;;;2.38;;
12112;SDS011;6120;52.250;8.478;2023-05-16T04:37:29;11.07;;;1.73;;
12112;SDS011;6120;52.250;8.478;2023-05-16T04:39:56;17.83;;;3.17;;
12112;SDS011;6120;52.250;8.478;2023-05-16T04:42:23;8.32;;;1.75;;
12112;SDS011;6120;52.250;8.478;2023-05-16T04:44:50;14.13;;;2.45;;
12112;SDS011;6120;52.250;8.478;2023-05-16T04:47:17;16.13;;;2.00;;
12112;SDS011;6120;52.250;8.478;2023-05-16T04:49:44;12.73;;;2.20;;
12112;SDS011;6120;52.250;8.478;2023-05-16T04:52:11;15.35;;;3.45;;
12112;SDS011;6120;52.250;8.478;2023-05-16T04:54:38;16.90;;;2.45;;
12112;SDS011;6120;52.250;8.478;2023-05-16T04:57:05;10.80;;;1.85;;
12112;SDS011;6120;52.250;8.478;2023-05-16T04:59:31;11.95;;;2.25;;
12112;SDS011;6120;52.250;8.478;2023-05-16T05:01:58;20.00;;;2.92;;
12112;SDS011;6120;52.250;8.478;2023-05-16T05:04:24;18.33;;;2.05;;
12112;SDS011;6120;52.250;8.478;2023-05-16T05:06:51;13.98;;;2.70;;
12112;SDS011;6120;52.250;8.478;2023-05-16T05:09:18;13.52;;;1.88;;
12112;SDS011;6120;52.250;8.478;2023-05-16T05:11:44;11.02;;;2.15;;
12112;SDS011;6120;52.250;8.478;2023-05-16T05:14:11;23.20;;;2.28;;
12112;SDS011;6120;52.250;8.478;2023-05-16T05:16:38;17.65;;;2.35;;
12112;SDS011;6120;52.250;8.478;2023-05-16T05:19:05;15.30;;;3.25;;
12112;SDS011;6120;52.250;8.478;2023-05-16T05:21:31;19.20;;;2.42;;
12112;SDS011;6120;52.250;8.478;2023-05-16T05:23:58;19.58;;;3.08;;
12112;SDS011;6120;52.250;8.478;2023-05-16T05:26:24;13.77;;;2.00;;
12112;SDS011;6120;52.250;8.478;2023-05-16T05:28:51;8.93;;;1.77;;
12112;SDS011;6120;52.250;8.478;2023-05-16T05:31:30;16.17;;;2.25;;
12112;SDS011;6120;52.250;8.478;2023-05-16T05:36:26;12.68;;;2.00;;
12112;SDS011;6120;52.250;8.478;2023-05-16T05:38:52;9.13;;;1.98;;
12112;SDS011;6120;52.250;8.478;2023-05-16T05:41:19;11.05;;;1.92;;
12112;SDS011;6120;52.250;8.478;2023-05-16T05:43:47;13.10;;;2.38;;
12112;SDS011;6120;52.250;8.478;2023-05-16T05:46:15;19.70;;;2.45;;
12112;SDS011;6120;52.250;8.478;2023-05-16T05:48:42;10.32;;;1.75;;
12112;SDS011;6120;52.250;8.478;2023-05-16T05:51:09;9.15;;;1.98;;
12112;SDS011;6120;52.250;8.478;2023-05-16T05:53:35;14.10;;;2.05;;
12112;SDS011;6120;52.250;8.478;2023-05-16T05:56:02;11.93;;;2.35;;
12112;SDS011;6120;52.250;8.478;2023-05-16T05:58:29;17.10;;;3.17;;
12112;SDS011;6120;52.250;8.478;2023-05-16T06:00:55;10.73;;;2.40;;
12112;SDS011;6120;52.250;8.478;2023-05-16T06:03:22;13.55;;;2.33;;
12112;SDS011;6120;52.250;8.478;2023-05-16T06:05:49;14.32;;;2.55;;
12112;SDS011;6120;52.250;8.478;2023-05-16T06:08:16;14.88;;;2.10;;
12112;SDS011;6120;52.250;8.478;2023-05-16T06:10:42;19.02;;;2.80;;
12112;SDS011;6120;52.250;8.478;2023-05-16T06:13:09;6.68;;;2.20;;
12112;SDS011;6120;52.250;8.478;2023-05-16T06:15:36;16.15;;;2.03;;
12112;SDS011;6120;52.250;8.478;2023-05-16T06:18:02;12.27;;;2.42;;
12112;SDS011;6120;52.250;8.478;2023-05-16T06:20:29;11.70;;;1.90;;
12112;SDS011;6120;52.250;8.478;2023-05-16T06:22:56;21.42;;;3.05;;
12112;SDS011;6120;52.250;8.478;2023-05-16T06:25:23;10.70;;;1.50;;
12112;SDS011;6120;52.250;8.478;2023-05-16T06:27:50;11.68;;;1.30;;
12112;SDS011;6120;52.250;8.478;2023-05-16T06:30:16;11.50;;;1.70;;
12112;SDS011;6120;52.250;8.478;2023-05-16T06:32:43;11.50;;;2.67;;
12112;SDS011;6120;52.250;8.478;2023-05-16T06:35:10;6.70;;;1.38;;
12112;SDS011;6120;52.250;8.478;2023-05-16T06:37:36;13.73;;;2.05;;
12112;SDS011;6120;52.250;8.478;2023-05-16T06:40:04;7.97;;;1.45;;
12112;SDS011;6120;52.250;8.478;2023-05-16T06:42:31;5.57;;;1.50;;
12112;SDS011;6120;52.250;8.478;2023-05-16T06:44:57;11.18;;;2.25;;
12112;SDS011;6120;52.250;8.478;2023-05-16T06:47:24;8.90;;;1.65;;
12112;SDS011;6120;52.250;8.478;2023-05-16T06:49:51;12.13;;;2.00;;
12112;SDS011;6120;52.250;8.478;2023-05-16T06:52:18;17.52;;;1.90;;
12112;SDS011;6120;52.250;8.478;2023-05-16T06:54:44;9.95;;;1.38;;
12112;SDS011;6120;52.250;8.478;2023-05-16T06:57:11;8.27;;;1.75;;
12112;SDS011;6120;52.250;8.478;2023-05-16T06:59:38;13.10;;;1.77;;
12112;SDS011;6120;52.250;8.478;2023-05-16T07:02:05;12.15;;;2.65;;
12112;SDS011;6120;52.250;8.478;2023-05-16T07:04:32;12.02;;;1.70;;
12112;SDS011;6120;52.250;8.478;2023-05-16T07:07:01;12.82;;;1.60;;
12112;SDS011;6120;52.250;8.478;2023-05-16T07:09:29;13.98;;;1.73;;
12112;SDS011;6120;52.250;8.478;2023-05-16T07:11:56;13.35;;;1.58;;
12112;SDS011;6120;52.250;8.478;2023-05-16T07:14:23;11.50;;;1.48;;
12112;SDS011;6120;52.250;8.478;2023-05-16T07:16:49;8.88;;;1.50;;
12112;SDS011;6120;52.250;8.478;2023-05-16T07:19:16;19.25;;;2.30;;
12112;SDS011;6120;52.250;8.478;2023-05-16T07:21:43;12.57;;;2.38;;
12112;SDS011;6120;52.250;8.478;2023-05-16T07:24:09;8.18;;;1.95;;
12112;SDS011;6120;52.250;8.478;2023-05-16T07:26:36;4.72;;;0.90;;
12112;SDS011;6120;52.250;8.478;2023-05-16T07:29:03;10.38;;;1.55;;
12112;SDS011;6120;52.250;8.478;2023-05-16T07:31:29;11.20;;;1.65;;
12112;SDS011;6120;52.250;8.478;2023-05-16T07:33:56;12.10;;;1.40;;
12112;SDS011;6120;52.250;8.478;2023-05-16T07:36:23;10.13;;;2.30;;
12112;SDS011;6120;52.250;8.478;2023-05-16T07:38:50;9.02;;;1.85;;
12112;SDS011;6120;52.250;8.478;2023-05-16T07:41:17;8.10;;;1.40;;
12112;SDS011;6120;52.250;8.478;2023-05-16T07:43:44;5.47;;;1.70;;
12112;SDS011;6120;52.250;8.478;2023-05-16T07:46:11;9.38;;;2.13;;
12112;SDS011;6120;52.250;8.478;2023-05-16T07:48:38;8.32;;;1.42;;
12112;SDS011;6120;52.250;8.478;2023-05-16T07:51:04;6.93;;;1.48;;
12112;SDS011;6120;52.250;8.478;2023-05-16T07:53:31;8.15;;;1.50;;
12112;SDS011;6120;52.250;8.478;2023-05-16T07:55:58;7.88;;;1.70;;
12112;SDS011;6120;52.250;8.478;2023-05-16T07:58:25;10.48;;;1.95;;
12112;SDS011;6120;52.250;8.478;2023-05-16T08:00:52;8.70;;;1.55;;
12112;SDS011;6120;52.250;8.478;2023-05-16T08:03:18;8.38;;;2.03;;
12112;SDS011;6120;52.250;8.478;2023-05-16T08:05:45;11.68;;;2.20;;
12112;SDS011;6120;52.250;8.478;2023-05-16T08:08:14;8.52;;;1.27;;
12112;SDS011;6120;52.250;8.478;2023-05-16T08:10:40;9.65;;;1.48;;
12112;SDS011;6120;52.250;8.478;2023-05-16T08:13:07;7.80;;;1.88;;
12112;SDS011;6120;52.250;8.478;2023-05-16T08:15:34;6.80;;;1.48;;
12112;SDS011;6120;52.250;8.478;2023-05-16T08:18:02;10.63;;;1.30;;
12112;SDS011;6120;52.250;8.478;2023-05-16T08:20:29;8.10;;;1.45;;
12112;SDS011;6120;52.250;8.478;2023-05-16T08:22:55;6.95;;;1.25;;
12112;SDS011;6120;52.250;8.478;2023-05-16T08:25:22;10.18;;;1.67;;
12112;SDS011;6120;52.250;8.478;2023-05-16T08:27:49;5.15;;;1.38;;
12112;SDS011;6120;52.250;8.478;2023-05-16T08:30:16;11.00;;;1.50;;
12112;SDS011;6120;52.250;8.478;2023-05-16T08:32:43;4.78;;;1.20;;
12112;SDS011;6120;52.250;8.478;2023-05-16T08:35:09;7.35;;;1.50;;
12112;SDS011;6120;52.250;8.478;2023-05-16T08:37:36;11.48;;;1.45;;
12112;SDS011;6120;52.250;8.478;2023-05-16T08:40:04;6.35;;;1.23;;
12112;SDS011;6120;52.250;8.478;2023-05-16T08:42:33;10.15;;;1.70;;
12112;SDS011;6120;52.250;8.478;2023-05-16T08:45:00;7.60;;;1.58;;
12112;SDS011;6120;52.250;8.478;2023-05-16T08:47:29;6.07;;;1.35;;
12112;SDS011;6120;52.250;8.478;2023-05-16T08:49:57;7.00;;;1.23;;
12112;SDS011;6120;52.250;8.478;2023-05-16T08:52:25;4.93;;;1.35;;
12112;SDS011;6120;52.250;8.478;2023-05-16T08:55:02;6.03;;;1.23;;
12112;SDS011;6120;52.250;8.478;2023-05-16T08:57:37;9.50;;;1.20;;
12112;SDS011;6120;52.250;8.478;2023-05-16T09:00:07;6.63;;;1.33;;
12112;SDS011;6120;52.250;8.478;2023-05-16T09:02:39;8.20;;;1.55;;
12112;SDS011;6120;52.250;8.478;2023-05-16T09:05:07;5.90;;;0.90;;
12112;SDS011;6120;52.250;8.478;2023-05-16T09:07:35;7.68;;;1.25;;
12112;SDS011;6120;52.250;8.478;2023-05-16T09:10:01;5.05;;;1.20;;
12112;SDS011;6120;52.250;8.478;2023-05-16T09:12:28;5.90;;;1.15;;
12112;SDS011;6120;52.250;8.478;2023-05-16T09:14:55;6.32;;;1.15;;
12112;SDS011;6120;52.250;8.478;2023-05-16T09:17:22;10.60;;;1.73;;
12112;SDS011;6120;52.250;8.478;2023-05-16T09:20:07;5.90;;;1.20;;
12112;SDS011;6120;52.250;8.478;2023-05-16T09:22:34;3.97;;;0.98;;
12112;SDS011;6120;52.250;8.478;2023-05-16T09:25:01;6.28;;;1.33;;
12112;SDS011;6120;52.250;8.478;2023-05-16T09:27:29;4.78;;;1.27;;
12112;SDS011;6120;52.250;8.478;2023-05-16T09:29:56;5.50;;;1.30;;
12112;SDS011;6120;52.250;8.478;2023-05-16T09:32:24;11.00;;;1.42;;
12112;SDS011;6120;52.250;8.478;2023-05-16T09:34:52;4.50;;;0.90;;
12112;SDS011;6120;52.250;8.478;2023-05-16T09:37:19;6.03;;;1.17;;
12112;SDS011;6120;52.250;8.478;2023-05-16T09:39:47;5.50;;;1.30;;
12112;SDS011;6120;52.250;8.478;2023-05-16T09:42:15;6.25;;;1.33;;
12112;SDS011;6120;52.250;8.478;2023-05-16T09:44:47;5.32;;;1.15;;
12112;SDS011;6120;52.250;8.478;2023-05-16T09:47:16;3.63;;;1.20;;
12112;SDS011;6120;52.250;8.478;2023-05-16T09:49:44;7.05;;;1.10;;
12112;SDS011;6120;52.250;8.478;2023-05-16T09:52:12;7.05;;;1.52;;
12112;SDS011;6120;52.250;8.478;2023-05-16T09:54:41;7.50;;;1.42;;
12112;SDS011;6120;52.250;8.478;2023-05-16T09:57:08;5.10;;;1.10;;
12112;SDS011;6120;52.250;8.478;2023-05-16T09:59:36;6.60;;;1.13;;
12112;SDS011;6120;52.250;8.478;2023-05-16T10:02:04;7.22;;;1.60;;
12112;SDS011;6120;52.250;8.478;2023-05-16T10:04:32;4.85;;;1.38;;
12112;SDS011;6120;52.250;8.478;2023-05-16T10:07:02;4.25;;;1.20;;
12112;SDS011;6120;52.250;8.478;2023-05-16T10:09:33;5.50;;;1.20;;
12112;SDS011;6120;52.250;8.478;2023-05-16T10:12:00;5.20;;;1.25;;
12112;SDS011;6120;52.250;8.478;2023-05-16T10:14:35;5.53;;;1.15;;
12112;SDS011;6120;52.250;8.478;2023-05-16T10:17:03;5.88;;;1.20;;
12112;SDS011;6120;52.250;8.478;2023-05-16T10:19:35;4.45;;;1.10;;
12112;SDS011;6120;52.250;8.478;2023-05-16T10:22:06;5.43;;;1.27;;
12112;SDS011;6120;52.250;8.478;2023-05-16T10:24:44;5.90;;;1.10;;
12112;SDS011;6120;52.250;8.478;2023-05-16T10:27:14;5.05;;;1.40;;
12112;SDS011;6120;52.250;8.478;2023-05-16T10:29:44;4.18;;;1.08;;
12112;SDS011;6120;52.250;8.478;2023-05-16T10:32:20;4.55;;;1.05;;
12112;SDS011;6120;52.250;8.478;2023-05-16T10:34:48;5.10;;;1.30;;
12112;SDS011;6120;52.250;8.478;2023-05-16T10:37:16;5.32;;;1.27;;
12112;SDS011;6120;52.250;8.478;2023-05-16T10:39:43;4.47;;;1.25;;
12112;SDS011;6120;52.250;8.478;2023-05-16T10:42:10;9.68;;;1.48;;
12112;SDS011;6120;52.250;8.478;2023-05-16T10:44:39;10.30;;;1.27;;
12112;SDS011;6120;52.250;8.478;2023-05-16T10:47:17;5.28;;;1.17;;
12112;SDS011;6120;52.250;8.478;2023-05-16T10:49:45;5.82;;;1.33;;
12112;SDS011;6120;52.250;8.478;2023-05-16T10:52:12;3.65;;;1.20;;
12112;SDS011;6120;52.250;8.478;2023-05-16T10:54:41;3.28;;;0.95;;
12112;SDS011;6120;52.250;8.478;2023-05-16T10:59:41;3.78;;;0.77;;
12112;SDS011;6120;52.250;8.478;2023-05-16T11:02:28;3.28;;;0.70;;
12112;SDS011;6120;52.250;8.478;2023-05-16T11:04:59;7.03;;;1.10;;
12112;SDS011;6120;52.250;8.478;2023-05-16T11:07:31;3.03;;;0.85;;
12112;SDS011;6120;52.250;8.478;2023-05-16T11:12:57;7.07;;;1.70;;
12112;SDS011;6120;52.250;8.478;2023-05-16T11:15:32;4.30;;;1.42;;
12112;SDS011;6120;52.250;8.478;2023-05-16T11:18:09;3.83;;;0.90;;
12112;SDS011;6120;52.250;8.478;2023-05-16T11:20:40;5.45;;;1.00;;
12112;SDS011;6120;52.250;8.478;2023-05-16T11:25:48;4.10;;;1.20;;
12112;SDS011;6120;52.250;8.478;2023-05-16T11:28:17;6.95;;;1.50;;
12112;SDS011;6120;52.250;8.478;2023-05-16T11:30:48;4.28;;;1.05;;
12112;SDS011;6120;52.250;8.478;2023-05-16T11:33:17;3.80;;;0.95;;
12112;SDS011;6120;52.250;8.478;2023-05-16T11:35:58;6.47;;;1.67;;
12112;SDS011;6120;52.250;8.478;2023-05-16T11:38:41;6.13;;;1.30;;
12112;SDS011;6120;52.250;8.478;2023-05-16T11:41:09;3.70;;;0.80;;
12112;SDS011;6120;52.250;8.478;2023-05-16T11:43:37;6.05;;;1.30;;
12112;SDS011;6120;52.250;8.478;2023-05-16T11:46:05;5.72;;;0.95;;
12112;SDS011;6120;52.250;8.478;2023-05-16T11:48:33;9.02;;;1.40;;
12112;SDS011;6120;52.250;8.478;2023-05-16T11:51:02;6.68;;;1.20;;
12112;SDS011;6120;52.250;8.478;2023-05-16T11:53:28;5.28;;;0.93;;
12112;SDS011;6120;52.250;8.478;2023-05-16T11:55:55;7.15;;;1.15;;
12112;SDS011;6120;52.250;8.478;2023-05-16T11:58:22;3.85;;;0.90;;
12112;SDS011;6120;52.250;8.478;2023-05-16T12:00:49;5.55;;;1.02;;
12112;SDS011;6120;52.250;8.478;2023-05-16T12:03:16;5.40;;;1.13;;
12112;SDS011;6120;52.250;8.478;2023-05-16T12:05:51;5.35;;;1.02;;
12112;SDS011;6120;52.250;8.478;2023-05-16T12:08:21;4.47;;;1.08;;
12112;SDS011;6120;52.250;8.478;2023-05-16T12:10:50;6.63;;;1.60;;
12112;SDS011;6120;52.250;8.478;2023-05-16T12:13:18;5.35;;;0.95;;
12112;SDS011;6120;52.250;8.478;2023-05-16T12:15:46;3.80;;;0.98;;
12112;SDS011;6120;52.250;8.478;2023-05-16T12:18:13;3.70;;;0.90;;
12112;SDS011;6120;52.250;8.478;2023-05-16T12:20:44;5.97;;;0.90;;
12112;SDS011;6120;52.250;8.478;2023-05-16T12:23:11;4.50;;;1.00;;
12112;SDS011;6120;52.250;8.478;2023-05-16T12:25:39;6.47;;;1.48;;
12112;SDS011;6120;52.250;8.478;2023-05-16T12:28:11;6.65;;;1.13;;
12112;SDS011;6120;52.250;8.478;2023-05-16T12:30:40;5.80;;;0.95;;
12112;SDS011;6120;52.250;8.478;2023-05-16T12:35:39;4.57;;;1.10;;
12112;SDS011;6120;52.250;8.478;2023-05-16T12:38:09;3.33;;;0.90;;
12112;SDS011;6120;52.250;8.478;2023-05-16T12:40:37;5.32;;;1.02;;
12112;SDS011;6120;52.250;8.478;2023-05-16T12:43:12;4.18;;;0.93;;
12112;SDS011;6120;52.250;8.478;2023-05-16T12:45:48;5.22;;;1.02;;
12112;SDS011;6120;52.250;8.478;2023-05-16T12:48:16;9.55;;;1.02;;
12112;SDS011;6120;52.250;8.478;2023-05-16T12:50:43;4.63;;;0.98;;
12112;SDS011;6120;52.250;8.478;2023-05-16T12:53:15;2.97;;;0.77;;
12112;SDS011;6120;52.250;8.478;2023-05-16T12:55:43;8.93;;;1.30;;
12112;SDS011;6120;52.250;8.478;2023-05-16T12:58:10;3.83;;;1.00;;
12112;SDS011;6120;52.250;8.478;2023-05-16T13:00:37;3.15;;;0.93;;
12112;SDS011;6120;52.250;8.478;2023-05-16T13:03:04;3.80;;;0.90;;
12112;SDS011;6120;52.250;8.478;2023-05-16T13:05:33;5.03;;;1.08;;
12112;SDS011;6120;52.250;8.478;2023-05-16T13:10:28;5.35;;;1.30;;
12112;SDS011;6120;52.250;8.478;2023-05-16T13:12:55;4.97;;;1.10;;
12112;SDS011;6120;52.250;8.478;2023-05-16T13:15:25;4.18;;;0.95;;
12112;SDS011;6120;52.250;8.478;2023-05-16T13:17:53;2.83;;;0.97;;
12112;SDS011;6120;52.250;8.478;2023-05-16T13:20:20;1.92;;;0.75;;
12112;SDS011;6120;52.250;8.478;2023-05-16T13:22:47;3.03;;;0.90;;
12112;SDS011;6120;52.250;8.478;2023-05-16T13:25:14;5.93;;;0.77;;
12112;SDS011;6120;52.250;8.478;2023-05-16T13:27:41;4.20;;;1.00;;
12112;SDS011;6120;52.250;8.478;2023-05-16T13:30:08;7.07;;;0.98;;
12112;SDS011;6120;52.250;8.478;2023-05-16T13:32:35;6.90;;;1.02;;
12112;SDS011;6120;52.250;8.478;2023-05-16T13:35:01;5.47;;;1.02;;
12112;SDS011;6120;52.250;8.478;2023-05-16T13:37:29;4.63;;;0.90;;
12112;SDS011;6120;52.250;8.478;2023-05-16T13:39:57;5.13;;;1.02;;
12112;SDS011;6120;52.250;8.478;2023-05-16T13:42:24;3.42;;;0.88;;
12112;SDS011;6120;52.250;8.478;2023-05-16T13:44:50;5.50;;;0.90;;
12112;SDS011;6120;52.250;8.478;2023-05-16T13:47:17;8.23;;;1.20;;
12112;SDS011;6120;52.250;8.478;2023-05-16T13:49:44;4.55;;;0.98;;
12112;SDS011;6120;52.250;8.478;2023-05-16T13:52:10;6.50;;;1.30;;
12112;SDS011;6120;52.250;8.478;2023-05-16T13:54:37;10.10;;;1.40;;
12112;SDS011;6120;52.250;8.478;2023-05-16T13:57:05;5.88;;;0.90;;
12112;SDS011;6120;52.250;8.478;2023-05-16T13:59:32;4.18;;;0.95;;
12112;SDS011;6120;52.250;8.478;2023-05-16T14:02:02;3.28;;;0.80;;
12112;SDS011;6120;52.250;8.478;2023-05-16T14:04:29;5.57;;;0.85;;
12112;SDS011;6120;52.250;8.478;2023-05-16T14:06:56;3.17;;;0.65;;
12112;SDS011;6120;52.250;8.478;2023-05-16T14:09:23;4.68;;;0.90;;
12112;SDS011;6120;52.250;8.478;2023-05-16T14:11:49;3.25;;;1.20;;
12112;SDS011;6120;52.250;8.478;2023-05-16T14:14:16;3.60;;;0.93;;
12112;SDS011;6120;52.250;8.478;2023-05-16T14:16:43;7.47;;;1.00;;
12112;SDS011;6120;52.250;8.478;2023-05-16T14:19:11;3.15;;;0.80;;
12112;SDS011;6120;52.250;8.478;2023-05-16T14:21:41;5.20;;;0.93;;
12112;SDS011;6120;52.250;8.478;2023-05-16T14:24:07;4.63;;;0.88;;
12112;SDS011;6120;52.250;8.478;2023-05-16T14:26:34;2.83;;;0.65;;
12112;SDS011;6120;52.250;8.478;2023-05-16T14:29:01;5.38;;;1.17;;
12112;SDS011;6120;52.250;8.478;2023-05-16T14:31:28;9.43;;;1.38;;
12112;SDS011;6120;52.250;8.478;2023-05-16T14:33:55;4.35;;;0.80;;
12112;SDS011;6120;52.250;8.478;2023-05-16T14:36:22;4.53;;;1.00;;
12112;SDS011;6120;52.250;8.478;2023-05-16T14:38:48;3.40;;;0.90;;
12112;SDS011;6120;52.250;8.478;2023-05-16T14:41:15;3.15;;;0.85;;
12112;SDS011;6120;52.250;8.478;2023-05-16T14:43:42;5.80;;;1.73;;
12112;SDS011;6120;52.250;8.478;2023-05-16T14:46:09;3.05;;;0.80;;
12112;SDS011;6120;52.250;8.478;2023-05-16T14:48:36;4.57;;;0.93;;
12112;SDS011;6120;52.250;8.478;2023-05-16T14:51:03;8.00;;;1.33;;
12112;SDS011;6120;52.250;8.478;2023-05-16T14:53:30;6.75;;;1.02;;
12112;SDS011;6120;52.250;8.478;2023-05-16T14:55:57;2.72;;;0.90;;
12112;SDS011;6120;52.250;8.478;2023-05-16T14:58:24;6.82;;;1.48;;
12112;SDS011;6120;52.250;8.478;2023-05-16T15:00:50;3.67;;;0.95;;
12112;SDS011;6120;52.250;8.478;2023-05-16T15:03:17;4.15;;;1.08;;
12112;SDS011;6120;52.250;8.478;2023-05-16T15:05:44;6.07;;;1.30;;
12112;SDS011;6120;52.250;8.478;2023-05-16T15:08:11;4.88;;;1.00;;
12112;SDS011;6120;52.250;8.478;2023-05-16T15:10:40;8.40;;;1.23;;
12112;SDS011;6120;52.250;8.478;2023-05-16T15:13:07;6.68;;;1.50;;
12112;SDS011;6120;52.250;8.478;2023-05-16T15:15:33;4.70;;;1.00;;
12112;SDS011;6120;52.250;8.478;2023-05-16T15:18:00;5.05;;;1.00;;
12112;SDS011;6120;52.250;8.478;2023-05-16T15:20:27;4.30;;;0.98;;
12112;SDS011;6120;52.250;8.478;2023-05-16T15:22:54;3.97;;;0.90;;
12112;SDS011;6120;52.250;8.478;2023-05-16T15:25:20;4.03;;;1.05;;
12112;SDS011;6120;52.250;8.478;2023-05-16T15:27:47;3.00;;;1.00;;
12112;SDS011;6120;52.250;8.478;2023-05-16T15:30:14;6.20;;;1.35;;
12112;SDS011;6120;52.250;8.478;2023-05-16T15:32:40;4.72;;;1.20;;
12112;SDS011;6120;52.250;8.478;2023-05-16T15:35:07;5.57;;;1.10;;